sensor_id;sensor_type;location;lat;lon;timestamp;P1;durP1;ratioP1;P2;durP2;ratioP2
8538;SDS011;4307;53.868;11.680;2023-11-21T00:01:18;10.10;;;5.90;;
8538;SDS011;4307;53.868;11.680;2023-11-21T00:03:45;9.87;;;5.33;;
8538;SDS011;4307;53.868;11.680;2023-11-21T00:06:11;9.43;;;6.00;;
8538;SDS011;4307;53.868;11.680;2023-11-21T00:08:39;8.20;;;5.83;;
8538;SDS011;4307;53.868;11.680;2023-11-21T00:11:06;7.00;;;5.90;;
8538;SDS011;4307;53.868;11.680;2023-11-21T00:13:33;8.47;;;6.20;;
8538;SDS011;4307;53.868;11.680;2023-11-21T00:16:00;8.43;;;6.30;;
8538;SDS011;4307;53.868;11.680;2023-11-21T00:18:27;9.73;;;6.07;;
8538;SDS011;4307;53.868;11.680;2023-11-21T00:20:53;8.27;;;5.87;;
8538;SDS011;4307;53.868;11.680;2023-11-21T00:23:20;12.53;;;6.17;;
8538;SDS011;4307;53.868;11.680;2023-11-21T00:25:47;9.93;;;6.23;;
8538;SDS011;4307;53.868;11.680;2023-11-21T00:28:13;10.47;;;6.20;;
8538;SDS011;4307;53.868;11.680;2023-11-21T00:30:40;8.13;;;5.87;;
8538;SDS011;4307;53.868;11.680;2023-11-21T00:33:07;7.10;;;5.83;;
8538;SDS011;4307;53.868;11.680;2023-11-21T00:35:35;7.70;;;5.90;;
8538;SDS011;4307;53.868;11.680;2023-11-21T00:38:01;7.83;;;6.10;;
8538;SDS011;4307;53.868;11.680;2023-11-21T00:40:28;10.57;;;6.73;;
8538;SDS011;4307;53.868;11.680;2023-11-21T00:42:55;11.70;;;6.67;;
8538;SDS011;4307;53.868;11.680;2023-11-21T00:45:22;8.63;;;6.10;;
8538;SDS011;4307;53.868;11.680;2023-11-21T00:47:49;6.70;;;6.00;;
8538;SDS011;4307;53.868;11.680;2023-11-21T00:50:15;7.90;;;5.87;;
8538;SDS011;4307;53.868;11.680;2023-11-21T00:52:43;8.47;;;5.90;;
8538;SDS011;4307;53.868;11.680;2023-11-21T00:55:10;11.50;;;6.23;;
8538;SDS011;4307;53.868;11.680;2023-11-21T00:57:37;10.27;;;5.97;;
8538;SDS011;4307;53.868;11.680;2023-11-21T01:00:04;7.53;;;5.73;;
8538;SDS011;4307;53.868;11.680;2023-11-21T01:02:35;8.53;;;5.73;;
8538;SDS011;4307;53.868;11.680;2023-11-21T01:05:02;8.73;;;5.93;;
8538;SDS011;4307;53.868;11.680;2023-11-21T01:07:29;8.33;;;6.20;;
8538;SDS011;4307;53.868;11.680;2023-11-21T01:09:57;7.50;;;5.50;;
8538;SDS011;4307;53.868;11.680;2023-11-21T01:12:24;11.67;;;6.13;;
8538;SDS011;4307;53.868;11.680;2023-11-21T01:14:51;8.63;;;6.17;;
8538;SDS011;4307;53.868;11.680;2023-11-21T01:17:17;9.40;;;6.47;;
8538;SDS011;4307;53.868;11.680;2023-11-21T01:19:44;9.33;;;6.70;;
8538;SDS011;4307;53.868;11.680;2023-11-21T01:22:10;12.23;;;6.87;;
8538;SDS011;4307;53.868;11.680;2023-11-21T01:24:37;7.90;;;6.57;;
8538;SDS011;4307;53.868;11.680;2023-11-21T01:27:06;9.80;;;6.80;;
8538;SDS011;4307;53.868;11.680;2023-11-21T01:29:33;8.53;;;6.33;;
8538;SDS011;4307;53.868;11.680;2023-11-21T01:32:00;11.63;;;6.97;;
8538;SDS011;4307;53.868;11.680;2023-11-21T01:34:28;10.30;;;6.77;;
8538;SDS011;4307;53.868;11.680;2023-11-21T01:36:55;9.50;;;7.00;;
8538;SDS011;4307;53.868;11.680;2023-11-21T01:39:22;14.07;;;7.33;;
8538;SDS011;4307;53.868;11.680;2023-11-21T01:41:49;12.00;;;6.70;;
8538;SDS011;4307;53.868;11.680;2023-11-21T01:44:18;11.43;;;6.97;;
8538;SDS011;4307;53.868;11.680;2023-11-21T01:46:45;10.47;;;6.40;;
8538;SDS011;4307;53.868;11.680;2023-11-21T01:49:12;10.50;;;6.03;;
8538;SDS011;4307;53.868;11.680;2023-11-21T01:51:40;7.67;;;6.17;;
8538;SDS011;4307;53.868;11.680;2023-11-21T01:54:08;11.70;;;6.33;;
8538;SDS011;4307;53.868;11.680;2023-11-21T01:56:36;9.83;;;6.13;;
8538;SDS011;4307;53.868;11.680;2023-11-21T01:59:04;11.87;;;6.80;;
8538;SDS011;4307;53.868;11.680;2023-11-21T02:01:33;8.87;;;6.00;;
8538;SDS011;4307;53.868;11.680;2023-11-21T02:04:00;9.03;;;6.27;;
8538;SDS011;4307;53.868;11.680;2023-11-21T02:06:26;8.03;;;6.23;;
8538;SDS011;4307;53.868;11.680;2023-11-21T02:08:56;13.17;;;7.00;;
8538;SDS011;4307;53.868;11.680;2023-11-21T02:11:22;9.40;;;6.67;;
8538;SDS011;4307;53.868;11.680;2023-11-21T02:13:49;8.63;;;6.20;;
8538;SDS011;4307;53.868;11.680;2023-11-21T02:16:19;7.93;;;6.47;;
8538;SDS011;4307;53.868;11.680;2023-11-21T02:18:47;9.57;;;7.07;;
8538;SDS011;4307;53.868;11.680;2023-11-21T02:21:14;9.33;;;6.80;;
8538;SDS011;4307;53.868;11.680;2023-11-21T02:23:42;10.80;;;6.70;;
8538;SDS011;4307;53.868;11.680;2023-11-21T02:26:11;11.03;;;7.03;;
8538;SDS011;4307;53.868;11.680;2023-11-21T02:28:38;12.30;;;7.43;;
8538;SDS011;4307;53.868;11.680;2023-11-21T02:31:05;11.53;;;7.50;;
8538;SDS011;4307;53.868;11.680;2023-11-21T02:33:32;9.50;;;6.97;;
8538;SDS011;4307;53.868;11.680;2023-11-21T02:35:59;8.47;;;6.57;;
8538;SDS011;4307;53.868;11.680;2023-11-21T02:38:26;11.67;;;7.17;;
8538;SDS011;4307;53.868;11.680;2023-11-21T02:40:54;10.47;;;7.53;;
8538;SDS011;4307;53.868;11.680;2023-11-21T02:43:23;11.47;;;7.33;;
8538;SDS011;4307;53.868;11.680;2023-11-21T02:45:50;8.57;;;6.80;;
8538;SDS011;4307;53.868;11.680;2023-11-21T02:48:16;9.30;;;6.57;;
8538;SDS011;4307;53.868;11.680;2023-11-21T02:50:43;10.63;;;6.67;;
8538;SDS011;4307;53.868;11.680;2023-11-21T02:53:09;9.57;;;6.90;;
8538;SDS011;4307;53.868;11.680;2023-11-21T02:55:37;8.73;;;6.60;;
8538;SDS011;4307;53.868;11.680;2023-11-21T02:58:05;9.33;;;6.23;;
8538;SDS011;4307;53.868;11.680;2023-11-21T03:00:32;11.33;;;6.70;;
8538;SDS011;4307;53.868;11.680;2023-11-21T03:02:58;9.33;;;6.37;;
8538;SDS011;4307;53.868;11.680;2023-11-21T03:05:25;9.90;;;7.10;;
8538;SDS011;4307;53.868;11.680;2023-11-21T03:07:53;12.13;;;7.67;;
8538;SDS011;4307;53.868;11.680;2023-11-21T03:10:20;12.07;;;7.43;;
8538;SDS011;4307;53.868;11.680;2023-11-21T03:12:47;10.30;;;7.43;;
8538;SDS011;4307;53.868;11.680;2023-11-21T03:15:15;10.53;;;7.37;;
8538;SDS011;4307;53.868;11.680;2023-11-21T03:17:41;11.73;;;7.70;;
8538;SDS011;4307;53.868;11.680;2023-11-21T03:20:08;9.77;;;7.60;;
8538;SDS011;4307;53.868;11.680;2023-11-21T03:22:38;10.43;;;7.33;;
8538;SDS011;4307;53.868;11.680;2023-11-21T03:25:05;10.27;;;8.03;;
8538;SDS011;4307;53.868;11.680;2023-11-21T03:27:35;11.07;;;7.00;;
8538;SDS011;4307;53.868;11.680;2023-11-21T03:30:02;9.90;;;7.13;;
8538;SDS011;4307;53.868;11.680;2023-11-21T03:32:33;10.87;;;7.33;;
8538;SDS011;4307;53.868;11.680;2023-11-21T03:35:00;12.23;;;7.23;;
8538;SDS011;4307;53.868;11.680;2023-11-21T03:37:27;11.50;;;8.60;;
8538;SDS011;4307;53.868;11.680;2023-11-21T03:39:54;9.97;;;7.97;;
8538;SDS011;4307;53.868;11.680;2023-11-21T03:42:21;10.60;;;7.43;;
8538;SDS011;4307;53.868;11.680;2023-11-21T03:44:48;9.80;;;8.07;;
8538;SDS011;4307;53.868;11.680;2023-11-21T03:47:15;10.80;;;7.53;;
8538;SDS011;4307;53.868;11.680;2023-11-21T03:49:43;11.50;;;6.67;;
8538;SDS011;4307;53.868;11.680;2023-11-21T03:52:10;8.80;;;7.10;;
8538;SDS011;4307;53.868;11.680;2023-11-21T03:54:37;10.63;;;7.03;;
8538;SDS011;4307;53.868;11.680;2023-11-21T03:57:04;10.07;;;6.97;;
8538;SDS011;4307;53.868;11.680;2023-11-21T03:59:30;10.83;;;7.27;;
8538;SDS011;4307;53.868;11.680;2023-11-21T04:01:57;10.63;;;6.60;;
8538;SDS011;4307;53.868;11.680;2023-11-21T04:04:24;9.20;;;7.37;;
8538;SDS011;4307;53.868;11.680;2023-11-21T04:06:52;11.00;;;7.10;;
8538;SDS011;4307;53.868;11.680;2023-11-21T04:09:18;8.73;;;6.57;;
8538;SDS011;4307;53.868;11.680;2023-11-21T04:11:45;13.13;;;6.73;;
8538;SDS011;4307;53.868;11.680;2023-11-21T04:14:12;8.50;;;6.10;;
8538;SDS011;4307;53.868;11.680;2023-11-21T04:16:40;8.60;;;6.83;;
8538;SDS011;4307;53.868;11.680;2023-11-21T04:19:07;8.87;;;6.17;;
8538;SDS011;4307;53.868;11.680;2023-11-21T04:21:34;10.03;;;6.33;;
8538;SDS011;4307;53.868;11.680;2023-11-21T04:24:02;9.03;;;6.23;;
8538;SDS011;4307;53.868;11.680;2023-11-21T04:26:29;6.77;;;6.03;;
8538;SDS011;4307;53.868;11.680;2023-11-21T04:28:55;6.77;;;5.77;;
8538;SDS011;4307;53.868;11.680;2023-11-21T04:31:22;7.37;;;5.53;;
8538;SDS011;4307;53.868;11.680;2023-11-21T04:33:49;6.77;;;5.37;;
8538;SDS011;4307;53.868;11.680;2023-11-21T04:36:15;7.07;;;5.73;;
8538;SDS011;4307;53.868;11.680;2023-11-21T04:38:42;10.00;;;5.57;;
8538;SDS011;4307;53.868;11.680;2023-11-21T04:41:10;6.83;;;5.10;;
8538;SDS011;4307;53.868;11.680;2023-11-21T04:43:37;6.73;;;5.20;;
8538;SDS011;4307;53.868;11.680;2023-11-21T04:46:04;6.70;;;5.40;;
8538;SDS011;4307;53.868;11.680;2023-11-21T04:48:31;10.03;;;5.33;;
8538;SDS011;4307;53.868;11.680;2023-11-21T04:50:58;9.20;;;4.60;;
8538;SDS011;4307;53.868;11.680;2023-11-21T04:53:25;5.87;;;4.73;;
8538;SDS011;4307;53.868;11.680;2023-11-21T04:55:51;6.73;;;4.83;;
8538;SDS011;4307;53.868;11.680;2023-11-21T04:58:20;6.73;;;5.27;;
8538;SDS011;4307;53.868;11.680;2023-11-21T05:00:46;5.67;;;4.27;;
8538;SDS011;4307;53.868;11.680;2023-11-21T05:03:12;6.97;;;4.33;;
8538;SDS011;4307;53.868;11.680;2023-11-21T05:05:39;6.87;;;4.43;;
8538;SDS011;4307;53.868;11.680;2023-11-21T05:08:05;8.90;;;5.23;;
8538;SDS011;4307;53.868;11.680;2023-11-21T05:10:33;6.40;;;4.57;;
8538;SDS011;4307;53.868;11.680;2023-11-21T05:13:03;7.70;;;4.33;;
8538;SDS011;4307;53.868;11.680;2023-11-21T05:15:31;5.20;;;4.70;;
8538;SDS011;4307;53.868;11.680;2023-11-21T05:17:58;6.40;;;4.47;;
8538;SDS011;4307;53.868;11.680;2023-11-21T05:20:25;5.10;;;4.23;;
8538;SDS011;4307;53.868;11.680;2023-11-21T05:22:51;4.63;;;4.13;;
8538;SDS011;4307;53.868;11.680;2023-11-21T05:25:18;5.83;;;4.63;;
8538;SDS011;4307;53.868;11.680;2023-11-21T05:27:45;7.73;;;4.67;;
8538;SDS011;4307;53.868;11.680;2023-11-21T05:30:12;6.93;;;4.90;;
8538;SDS011;4307;53.868;11.680;2023-11-21T05:32:41;7.17;;;4.80;;
8538;SDS011;4307;53.868;11.680;2023-11-21T05:35:08;8.87;;;4.30;;
8538;SDS011;4307;53.868;11.680;2023-11-21T05:37:39;5.73;;;4.60;;
8538;SDS011;4307;53.868;11.680;2023-11-21T05:40:06;6.17;;;4.63;;
8538;SDS011;4307;53.868;11.680;2023-11-21T05:42:33;6.37;;;5.17;;
8538;SDS011;4307;53.868;11.680;2023-11-21T05:45:00;6.83;;;4.13;;
8538;SDS011;4307;53.868;11.680;2023-11-21T05:47:34;6.10;;;4.30;;
8538;SDS011;4307;53.868;11.680;2023-11-21T05:50:04;5.80;;;4.77;;
8538;SDS011;4307;53.868;11.680;2023-11-21T05:52:35;5.97;;;4.53;;
8538;SDS011;4307;53.868;11.680;2023-11-21T05:55:02;6.60;;;4.70;;
8538;SDS011;4307;53.868;11.680;2023-11-21T05:57:30;8.33;;;6.20;;
8538;SDS011;4307;53.868;11.680;2023-11-21T05:59:57;7.67;;;4.67;;
8538;SDS011;4307;53.868;11.680;2023-11-21T06:02:24;6.23;;;4.40;;
8538;SDS011;4307;53.868;11.680;2023-11-21T06:04:51;6.60;;;4.80;;
8538;SDS011;4307;53.868;11.680;2023-11-21T06:07:19;6.23;;;4.60;;
8538;SDS011;4307;53.868;11.680;2023-11-21T06:09:45;6.10;;;4.83;;
8538;SDS011;4307;53.868;11.680;2023-11-21T06:12:13;6.07;;;4.77;;
8538;SDS011;4307;53.868;11.680;2023-11-21T06:14:41;10.43;;;4.60;;
8538;SDS011;4307;53.868;11.680;2023-11-21T06:17:06;4.83;;;3.90;;
8538;SDS011;4307;53.868;11.680;2023-11-21T06:19:34;4.60;;;4.20;;
8538;SDS011;4307;53.868;11.680;2023-11-21T06:22:01;5.00;;;3.90;;
8538;SDS011;4307;53.868;11.680;2023-11-21T06:24:29;7.10;;;4.60;;
8538;SDS011;4307;53.868;11.680;2023-11-21T06:26:56;8.77;;;4.80;;
8538;SDS011;4307;53.868;11.680;2023-11-21T06:29:23;5.17;;;4.57;;
8538;SDS011;4307;53.868;11.680;2023-11-21T06:31:51;7.53;;;5.07;;
8538;SDS011;4307;53.868;11.680;2023-11-21T06:34:20;7.23;;;4.63;;
8538;SDS011;4307;53.868;11.680;2023-11-21T06:36:46;6.17;;;4.60;;
8538;SDS011;4307;53.868;11.680;2023-11-21T06:39:13;6.87;;;4.93;;
8538;SDS011;4307;53.868;11.680;2023-11-21T06:41:43;7.50;;;4.80;;
8538;SDS011;4307;53.868;11.680;2023-11-21T06:44:09;6.17;;;4.70;;
8538;SDS011;4307;53.868;11.680;2023-11-21T06:46:36;5.37;;;4.50;;
8538;SDS011;4307;53.868;11.680;2023-11-21T06:49:04;6.30;;;5.00;;
8538;SDS011;4307;53.868;11.680;2023-11-21T06:51:31;9.53;;;4.97;;
8538;SDS011;4307;53.868;11.680;2023-11-21T06:53:58;7.93;;;5.07;;
8538;SDS011;4307;53.868;11.680;2023-11-21T06:56:25;7.80;;;5.10;;
8538;SDS011;4307;53.868;11.680;2023-11-21T06:58:53;7.80;;;5.20;;
8538;SDS011;4307;53.868;11.680;2023-11-21T07:01:19;12.97;;;5.30;;
8538;SDS011;4307;53.868;11.680;2023-11-21T07:03:46;7.00;;;5.30;;
8538;SDS011;4307;53.868;11.680;2023-11-21T07:06:13;6.10;;;5.03;;
8538;SDS011;4307;53.868;11.680;2023-11-21T07:08:39;6.47;;;4.97;;
8538;SDS011;4307;53.868;11.680;2023-11-21T07:11:07;5.73;;;4.77;;
8538;SDS011;4307;53.868;11.680;2023-11-21T07:13:34;6.47;;;4.57;;
8538;SDS011;4307;53.868;11.680;2023-11-21T07:16:02;10.97;;;4.80;;
8538;SDS011;4307;53.868;11.680;2023-11-21T07:18:29;5.67;;;4.80;;
8538;SDS011;4307;53.868;11.680;2023-11-21T07:20:56;6.17;;;4.80;;
8538;SDS011;4307;53.868;11.680;2023-11-21T07:23:23;6.63;;;4.47;;
8538;SDS011;4307;53.868;11.680;2023-11-21T07:25:50;6.67;;;5.13;;
8538;SDS011;4307;53.868;11.680;2023-11-21T07:28:17;6.63;;;5.03;;
8538;SDS011;4307;53.868;11.680;2023-11-21T07:30:44;8.60;;;4.80;;
8538;SDS011;4307;53.868;11.680;2023-11-21T07:33:12;6.37;;;4.40;;
8538;SDS011;4307;53.868;11.680;2023-11-21T07:35:39;7.17;;;4.63;;
8538;SDS011;4307;53.868;11.680;2023-11-21T07:38:06;6.60;;;4.83;;
8538;SDS011;4307;53.868;11.680;2023-11-21T07:40:32;6.00;;;4.43;;
8538;SDS011;4307;53.868;11.680;2023-11-21T07:42:59;5.03;;;4.03;;
8538;SDS011;4307;53.868;11.680;2023-11-21T07:45:26;5.47;;;4.33;;
8538;SDS011;4307;53.868;11.680;2023-11-21T07:47:53;5.27;;;4.77;;
8538;SDS011;4307;53.868;11.680;2023-11-21T07:50:21;4.83;;;4.33;;
8538;SDS011;4307;53.868;11.680;2023-11-21T07:52:48;6.97;;;4.47;;
8538;SDS011;4307;53.868;11.680;2023-11-21T07:55:15;9.33;;;5.10;;
8538;SDS011;4307;53.868;11.680;2023-11-21T07:57:42;8.77;;;4.53;;
8538;SDS011;4307;53.868;11.680;2023-11-21T08:00:09;6.57;;;4.30;;
8538;SDS011;4307;53.868;11.680;2023-11-21T08:02:37;6.73;;;4.33;;
8538;SDS011;4307;53.868;11.680;2023-11-21T08:05:04;9.83;;;4.03;;
8538;SDS011;4307;53.868;11.680;2023-11-21T08:07:33;5.43;;;4.30;;
8538;SDS011;4307;53.868;11.680;2023-11-21T08:10:00;5.40;;;4.60;;
8538;SDS011;4307;53.868;11.680;2023-11-21T08:12:26;5.37;;;4.43;;
8538;SDS011;4307;53.868;11.680;2023-11-21T08:14:53;4.97;;;4.07;;
8538;SDS011;4307;53.868;11.680;2023-11-21T08:17:20;4.93;;;4.23;;
8538;SDS011;4307;53.868;11.680;2023-11-21T08:19:47;5.20;;;4.20;;
8538;SDS011;4307;53.868;11.680;2023-11-21T08:22:16;4.73;;;4.17;;
8538;SDS011;4307;53.868;11.680;2023-11-21T08:24:44;7.93;;;4.57;;
8538;SDS011;4307;53.868;11.680;2023-11-21T08:27:11;5.53;;;4.37;;
8538;SDS011;4307;53.868;11.680;2023-11-21T08:29:40;4.87;;;4.30;;
8538;SDS011;4307;53.868;11.680;2023-11-21T08:32:07;8.83;;;4.10;;
8538;SDS011;4307;53.868;11.680;2023-11-21T08:34:34;5.47;;;4.30;;
8538;SDS011;4307;53.868;11.680;2023-11-21T08:37:01;7.60;;;4.77;;
8538;SDS011;4307;53.868;11.680;2023-11-21T08:39:28;8.80;;;4.60;;
8538;SDS011;4307;53.868;11.680;2023-11-21T08:41:56;13.27;;;4.73;;
8538;SDS011;4307;53.868;11.680;2023-11-21T08:44:23;9.30;;;4.87;;
8538;SDS011;4307;53.868;11.680;2023-11-21T08:46:50;6.93;;;4.13;;
8538;SDS011;4307;53.868;11.680;2023-11-21T08:49:16;6.50;;;4.30;;
8538;SDS011;4307;53.868;11.680;2023-11-21T08:51:46;7.47;;;4.80;;
8538;SDS011;4307;53.868;11.680;2023-11-21T08:54:12;7.13;;;4.60;;
8538;SDS011;4307;53.868;11.680;2023-11-21T08:56:40;6.63;;;4.60;;
8538;SDS011;4307;53.868;11.680;2023-11-21T08:59:10;6.47;;;4.77;;
8538;SDS011;4307;53.868;11.680;2023-11-21T09:01:40;7.27;;;5.23;;
8538;SDS011;4307;53.868;11.680;2023-11-21T09:04:06;5.13;;;3.83;;
8538;SDS011;4307;53.868;11.680;2023-11-21T09:06:33;6.30;;;4.73;;
8538;SDS011;4307;53.868;11.680;2023-11-21T09:09:00;8.57;;;5.30;;
8538;SDS011;4307;53.868;11.680;2023-11-21T09:11:27;5.90;;;4.63;;
8538;SDS011;4307;53.868;11.680;2023-11-21T09:13:58;9.77;;;5.83;;
8538;SDS011;4307;53.868;11.680;2023-11-21T09:16:26;4.30;;;3.80;;
8538;SDS011;4307;53.868;11.680;2023-11-21T09:18:53;7.57;;;4.87;;
8538;SDS011;4307;53.868;11.680;2023-11-21T09:21:20;6.83;;;5.27;;
8538;SDS011;4307;53.868;11.680;2023-11-21T09:23:47;5.47;;;3.70;;
8538;SDS011;4307;53.868;11.680;2023-11-21T09:26:14;8.13;;;5.13;;
8538;SDS011;4307;53.868;11.680;2023-11-21T09:28:41;6.37;;;4.87;;
8538;SDS011;4307;53.868;11.680;2023-11-21T09:31:11;7.10;;;5.13;;
8538;SDS011;4307;53.868;11.680;2023-11-21T09:33:42;7.07;;;4.93;;
8538;SDS011;4307;53.868;11.680;2023-11-21T09:36:10;7.93;;;5.00;;
8538;SDS011;4307;53.868;11.680;2023-11-21T09:38:38;7.53;;;4.77;;
8538;SDS011;4307;53.868;11.680;2023-11-21T09:41:15;10.00;;;4.57;;
8538;SDS011;4307;53.868;11.680;2023-11-21T09:43:49;5.47;;;4.37;;
8538;SDS011;4307;53.868;11.680;2023-11-21T09:46:20;6.60;;;4.73;;
8538;SDS011;4307;53.868;11.680;2023-11-21T09:48:51;5.60;;;4.60;;
8538;SDS011;4307;53.868;11.680;2023-11-21T09:51:19;5.73;;;4.43;;
8538;SDS011;4307;53.868;11.680;2023-11-21T09:53:48;7.10;;;4.50;;
8538;SDS011;4307;53.868;11.680;2023-11-21T09:56:17;7.57;;;4.07;;
8538;SDS011;4307;53.868;11.680;2023-11-21T09:58:49;5.23;;;4.50;;
8538;SDS011;4307;53.868;11.680;2023-11-21T10:01:17;5.43;;;4.43;;
8538;SDS011;4307;53.868;11.680;2023-11-21T10:03:45;6.30;;;4.40;;
8538;SDS011;4307;53.868;11.680;2023-11-21T10:06:13;5.30;;;4.10;;
8538;SDS011;4307;53.868;11.680;2023-11-21T10:08:41;5.97;;;4.37;;
8538;SDS011;4307;53.868;11.680;2023-11-21T10:11:08;5.93;;;4.73;;
8538;SDS011;4307;53.868;11.680;2023-11-21T10:13:36;5.87;;;4.50;;
8538;SDS011;4307;53.868;11.680;2023-11-21T10:16:06;4.40;;;3.80;;
8538;SDS011;4307;53.868;11.680;2023-11-21T10:18:37;5.37;;;3.90;;
8538;SDS011;4307;53.868;11.680;2023-11-21T10:21:05;4.80;;;3.80;;
8538;SDS011;4307;53.868;11.680;2023-11-21T10:23:33;5.03;;;3.53;;
8538;SDS011;4307;53.868;11.680;2023-11-21T10:26:00;4.80;;;3.63;;
8538;SDS011;4307;53.868;11.680;2023-11-21T10:28:28;4.53;;;3.53;;
8538;SDS011;4307;53.868;11.680;2023-11-21T10:30:54;5.93;;;4.00;;
8538;SDS011;4307;53.868;11.680;2023-11-21T10:33:26;5.17;;;3.77;;
8538;SDS011;4307;53.868;11.680;2023-11-21T10:35:54;4.63;;;3.80;;
8538;SDS011;4307;53.868;11.680;2023-11-21T10:38:21;4.30;;;3.60;;
8538;SDS011;4307;53.868;11.680;2023-11-21T10:40:50;5.73;;;3.90;;
8538;SDS011;4307;53.868;11.680;2023-11-21T10:43:19;4.53;;;3.40;;
8538;SDS011;4307;53.868;11.680;2023-11-21T10:45:50;3.83;;;3.53;;
8538;SDS011;4307;53.868;11.680;2023-11-21T10:48:17;3.77;;;3.37;;
8538;SDS011;4307;53.868;11.680;2023-11-21T10:50:44;4.30;;;3.30;;
8538;SDS011;4307;53.868;11.680;2023-11-21T10:53:12;4.90;;;3.87;;
8538;SDS011;4307;53.868;11.680;2023-11-21T10:55:39;3.73;;;3.30;;
8538;SDS011;4307;53.868;11.680;2023-11-21T10:58:07;3.63;;;3.07;;
8538;SDS011;4307;53.868;11.680;2023-11-21T11:00:36;7.70;;;3.47;;
8538;SDS011;4307;53.868;11.680;2023-11-21T11:03:05;3.90;;;3.10;;
8538;SDS011;4307;53.868;11.680;2023-11-21T11:05:38;3.00;;;2.70;;
8538;SDS011;4307;53.868;11.680;2023-11-21T11:08:11;3.10;;;2.57;;
8538;SDS011;4307;53.868;11.680;2023-11-21T11:10:43;6.77;;;3.10;;
8538;SDS011;4307;53.868;11.680;2023-11-21T11:13:12;3.90;;;2.77;;
8538;SDS011;4307;53.868;11.680;2023-11-21T11:15:40;4.27;;;3.23;;
8538;SDS011;4307;53.868;11.680;2023-11-21T11:18:07;3.63;;;2.60;;
8538;SDS011;4307;53.868;11.680;2023-11-21T11:20:36;4.13;;;3.00;;
8538;SDS011;4307;53.868;11.680;2023-11-21T11:23:11;3.57;;;3.10;;
8538;SDS011;4307;53.868;11.680;2023-11-21T11:25:53;4.10;;;3.37;;
8538;SDS011;4307;53.868;11.680;2023-11-21T11:28:41;3.00;;;2.70;;
8538;SDS011;4307;53.868;11.680;2023-11-21T11:31:25;4.10;;;3.10;;
8538;SDS011;4307;53.868;11.680;2023-11-21T11:33:58;5.13;;;3.03;;
8538;SDS011;4307;53.868;11.680;2023-11-21T11:36:31;4.00;;;3.03;;
8538;SDS011;4307;53.868;11.680;2023-11-21T11:39:02;3.47;;;3.03;;
8538;SDS011;4307;53.868;11.680;2023-11-21T11:41:30;3.33;;;2.77;;
8538;SDS011;4307;53.868;11.680;2023-11-21T11:44:01;3.27;;;2.97;;
8538;SDS011;4307;53.868;11.680;2023-11-21T11:49:15;4.10;;;3.00;;
8538;SDS011;4307;53.868;11.680;2023-11-21T11:52:03;4.60;;;2.97;;
8538;SDS011;4307;53.868;11.680;2023-11-21T11:54:58;6.23;;;3.40;;
8538;SDS011;4307;53.868;11.680;2023-11-21T11:57:26;4.17;;;2.80;;
8538;SDS011;4307;53.868;11.680;2023-11-21T12:00:09;4.87;;;3.20;;
8538;SDS011;4307;53.868;11.680;2023-11-21T12:02:41;5.57;;;2.97;;
8538;SDS011;4307;53.868;11.680;2023-11-21T12:05:08;4.17;;;2.83;;
8538;SDS011;4307;53.868;11.680;2023-11-21T12:07:46;6.10;;;3.33;;
8538;SDS011;4307;53.868;11.680;2023-11-21T12:10:14;3.13;;;2.83;;
8538;SDS011;4307;53.868;11.680;2023-11-21T12:12:43;7.93;;;2.70;;
8538;SDS011;4307;53.868;11.680;2023-11-21T12:15:15;3.80;;;3.40;;
8538;SDS011;4307;53.868;11.680;2023-11-21T12:17:43;3.47;;;3.00;;
8538;SDS011;4307;53.868;11.680;2023-11-21T12:20:10;4.07;;;2.70;;
8538;SDS011;4307;53.868;11.680;2023-11-21T12:22:43;3.57;;;3.00;;
8538;SDS011;4307;53.868;11.680;2023-11-21T12:25:12;8.43;;;3.37;;
8538;SDS011;4307;53.868;11.680;2023-11-21T12:27:41;3.70;;;2.90;;
8538;SDS011;4307;53.868;11.680;2023-11-21T12:30:09;4.77;;;2.77;;
8538;SDS011;4307;53.868;11.680;2023-11-21T12:32:40;4.90;;;3.13;;
8538;SDS011;4307;53.868;11.680;2023-11-21T12:35:07;4.43;;;3.00;;
8538;SDS011;4307;53.868;11.680;2023-11-21T12:37:35;3.23;;;2.80;;
8538;SDS011;4307;53.868;11.680;2023-11-21T12:40:03;3.80;;;2.53;;
8538;SDS011;4307;53.868;11.680;2023-11-21T12:42:31;4.47;;;2.63;;
8538;SDS011;4307;53.868;11.680;2023-11-21T12:45:08;2.50;;;2.30;;
8538;SDS011;4307;53.868;11.680;2023-11-21T12:47:41;4.87;;;2.57;;
8538;SDS011;4307;53.868;11.680;2023-11-21T12:50:09;4.93;;;2.40;;
8538;SDS011;4307;53.868;11.680;2023-11-21T12:52:39;2.93;;;2.20;;
8538;SDS011;4307;53.868;11.680;2023-11-21T12:55:09;2.33;;;2.03;;
8538;SDS011;4307;53.868;11.680;2023-11-21T12:57:40;3.70;;;2.53;;
8538;SDS011;4307;53.868;11.680;2023-11-21T13:00:08;2.87;;;2.57;;
8538;SDS011;4307;53.868;11.680;2023-11-21T13:02:42;4.17;;;2.43;;
8538;SDS011;4307;53.868;11.680;2023-11-21T13:05:09;3.47;;;2.20;;
8538;SDS011;4307;53.868;11.680;2023-11-21T13:07:46;5.27;;;2.43;;
8538;SDS011;4307;53.868;11.680;2023-11-21T13:10:15;2.87;;;2.10;;
8538;SDS011;4307;53.868;11.680;2023-11-21T13:12:43;3.17;;;2.50;;
8538;SDS011;4307;53.868;11.680;2023-11-21T13:15:13;2.60;;;2.40;;
8538;SDS011;4307;53.868;11.680;2023-11-21T13:17:44;3.90;;;2.53;;
8538;SDS011;4307;53.868;11.680;2023-11-21T13:20:11;3.47;;;2.47;;
8538;SDS011;4307;53.868;11.680;2023-11-21T13:22:44;4.83;;;2.70;;
8538;SDS011;4307;53.868;11.680;2023-11-21T13:25:15;3.10;;;2.43;;
8538;SDS011;4307;53.868;11.680;2023-11-21T13:27:43;5.53;;;2.33;;
8538;SDS011;4307;53.868;11.680;2023-11-21T13:30:11;3.53;;;2.50;;
8538;SDS011;4307;53.868;11.680;2023-11-21T13:32:41;2.70;;;2.33;;
8538;SDS011;4307;53.868;11.680;2023-11-21T13:35:11;3.77;;;2.50;;
8538;SDS011;4307;53.868;11.680;2023-11-21T13:37:46;3.60;;;2.80;;
8538;SDS011;4307;53.868;11.680;2023-11-21T13:40:16;2.93;;;2.30;;
8538;SDS011;4307;53.868;11.680;2023-11-21T13:42:47;2.57;;;2.30;;
8538;SDS011;4307;53.868;11.680;2023-11-21T13:45:18;3.53;;;2.43;;
8538;SDS011;4307;53.868;11.680;2023-11-21T13:47:47;2.93;;;2.70;;
8538;SDS011;4307;53.868;11.680;2023-11-21T13:50:16;3.67;;;2.33;;
8538;SDS011;4307;53.868;11.680;2023-11-21T13:52:47;3.47;;;2.50;;
8538;SDS011;4307;53.868;11.680;2023-11-21T13:55:15;4.97;;;2.20;;
8538;SDS011;4307;53.868;11.680;2023-11-21T13:57:41;2.90;;;2.50;;
8538;SDS011;4307;53.868;11.680;2023-11-21T14:00:12;3.83;;;3.23;;
8538;SDS011;4307;53.868;11.680;2023-11-21T14:03:02;6.60;;;2.77;;
8538;SDS011;4307;53.868;11.680;2023-11-21T14:05:33;3.43;;;2.70;;
8538;SDS011;4307;53.868;11.680;2023-11-21T14:08:00;4.30;;;2.30;;
8538;SDS011;4307;53.868;11.680;2023-11-21T14:10:29;1.47;;;1.37;;
8538;SDS011;4307;53.868;11.680;2023-11-21T14:13:05;2.87;;;2.57;;
8538;SDS011;4307;53.868;11.680;2023-11-21T14:15:31;3.53;;;2.07;;
8538;SDS011;4307;53.868;11.680;2023-11-21T14:18:04;2.37;;;2.17;;
8538;SDS011;4307;53.868;11.680;2023-11-21T14:20:33;4.07;;;2.47;;
8538;SDS011;4307;53.868;11.680;2023-11-21T14:23:01;2.77;;;2.23;;
8538;SDS011;4307;53.868;11.680;2023-11-21T14:25:28;2.37;;;2.10;;
8538;SDS011;4307;53.868;11.680;2023-11-21T14:27:54;2.07;;;1.70;;
8538;SDS011;4307;53.868;11.680;2023-11-21T14:30:22;3.20;;;2.40;;
8538;SDS011;4307;53.868;11.680;2023-11-21T14:32:48;4.63;;;2.50;;
8538;SDS011;4307;53.868;11.680;2023-11-21T14:35:17;5.37;;;3.10;;
8538;SDS011;4307;53.868;11.680;2023-11-21T14:37:44;4.63;;;2.57;;
8538;SDS011;4307;53.868;11.680;2023-11-21T14:40:11;2.50;;;2.30;;
8538;SDS011;4307;53.868;11.680;2023-11-21T14:42:40;3.77;;;2.30;;
8538;SDS011;4307;53.868;11.680;2023-11-21T14:45:08;3.30;;;2.80;;
8538;SDS011;4307;53.868;11.680;2023-11-21T14:47:37;1.70;;;1.50;;
8538;SDS011;4307;53.868;11.680;2023-11-21T14:50:09;2.40;;;2.20;;
8538;SDS011;4307;53.868;11.680;2023-11-21T14:53:05;2.13;;;1.93;;
8538;SDS011;4307;53.868;11.680;2023-11-21T14:55:31;3.10;;;2.33;;
8538;SDS011;4307;53.868;11.680;2023-11-21T14:58:08;2.93;;;1.83;;
8538;SDS011;4307;53.868;11.680;2023-11-21T15:00:38;3.33;;;2.17;;
8538;SDS011;4307;53.868;11.680;2023-11-21T15:03:09;4.67;;;2.43;;
8538;SDS011;4307;53.868;11.680;2023-11-21T15:05:43;4.30;;;2.47;;
8538;SDS011;4307;53.868;11.680;2023-11-21T15:08:11;4.00;;;2.33;;
8538;SDS011;4307;53.868;11.680;2023-11-21T15:10:46;2.60;;;2.33;;